Time;durP1;ratioP1;P1;durP2;ratioP2;P2;SDS_P1;SDS_P2;PMS_P1;PMS_P2;Temp;Humidity;BMP_temperature;BMP_pressure;BME280_temperature;BME280_humidity;BME280_pressure;Samples;Min_cycle;Max_cycle;Signal;HPM_P1;HPM_P2
2022/06/25 00:01:37;;;;;;;19.17;15.57;;;;;;;;;;6299676;22;20019;-81
2022/06/25 00:05:27;;;;;;;16.42;14.60;;;;;;;;;;6327700;22;20062;-83
2022/06/25 00:07:10;;;;;;;16.45;14.60;;;;;;;;;;6326530;22;20069;-82
2022/06/25 00:09:36;;;;;;;;;;;;;;;;;;6324856;22;20037;-82
2022/06/25 00:14:47;;;;;;;15.50;12.60;;;;;;;;;;6325368;22;20022;-82
2022/06/25 00:17:20;;;;;;;13.65;11.90;;;;;;;;;;6270493;22;20077;-82
2022/06/25 00:19:47;;;;;;;14.98;11.50;;;;;;;;;;6243200;22;20783;-83
2022/06/25 00:22:13;;;;;;;13.15;11.85;;;;;;;;;;6295240;22;20513;-81
2022/06/25 00:24:42;;;;;;;16.38;12.13;;;;;;;;;;6266946;22;20418;-82
2022/06/25 00:27:08;;;;;;;13.93;12.40;;;;;;;;;;6293314;22;20059;-82
2022/06/25 00:29:34;;;;;;;14.82;11.15;;;;;;;;;;6268696;22;20027;-82
2022/06/25 00:32:00;;;;;;;12.68;11.25;;;;;;;;;;6294062;22;20012;-81
2022/06/25 00:34:29;;;;;;;14.27;11.77;;;;;;;;;;6296273;22;20050;-80
2022/06/25 00:36:56;;;;;;;13.65;12.25;;;;;;;;;;6293127;22;20109;-81
2022/06/25 00:39:25;;;;;;;14.75;13.30;;;;;;;;;;6242934;22;20738;-84
2022/06/25 00:41:51;;;;;;;15.48;13.43;;;;;;;;;;6267322;22;20152;-84
2022/06/25 00:44:17;;;;;;;16.23;14.52;;;;;;;;;;6294612;22;20061;-81
2022/06/25 00:46:46;;;;;;;15.60;13.63;;;;;;;;;;6267243;22;20550;-83
2022/06/25 00:49:12;;;;;;;16.02;14.18;;;;;;;;;;6295941;22;20016;-82
2022/06/25 00:51:40;;;;;;;21.92;14.55;;;;;;;;;;6267841;22;20019;-82
2022/06/25 00:54:24;;;;;;;17.45;15.70;;;;;;;;;;6294593;22;20094;-82
2022/06/25 00:56:53;;;;;;;16.30;14.80;;;;;;;;;;6297758;22;20278;-82
2022/06/25 00:59:21;;;;;;;17.85;15.95;;;;;;;;;;6268853;22;20463;-82
2022/06/25 01:01:47;;;;;;;18.15;16.17;;;;;;;;;;6297576;22;20016;-81
2022/06/25 01:04:13;;;;;;;20.40;16.17;;;;;;;;;;6295088;22;20015;-81
2022/06/25 01:06:39;;;;;;;17.25;15.40;;;;;;;;;;6299581;22;20038;-81
2022/06/25 01:09:05;;;;;;;18.05;15.98;;;;;;;;;;6295715;22;20012;-81
2022/06/25 01:11:31;;;;;;;18.17;16.25;;;;;;;;;;6242637;22;20523;-82
2022/06/25 01:13:58;;;;;;;19.08;16.08;;;;;;;;;;6295541;22;20094;-82
2022/06/25 01:16:24;;;;;;;18.35;16.20;;;;;;;;;;6314334;22;20022;-82
2022/06/25 01:18:50;;;;;;;18.88;16.90;;;;;;;;;;6327429;22;20463;-83
2022/06/25 01:21:16;;;;;;;19.95;16.92;;;;;;;;;;6325244;22;20097;-82
2022/06/25 01:23:42;;;;;;;18.88;16.88;;;;;;;;;;6328233;22;20046;-82
2022/06/25 01:26:08;;;;;;;18.45;15.80;;;;;;;;;;6326720;22;20537;-82
2022/06/25 01:28:34;;;;;;;17.90;15.55;;;;;;;;;;6299881;22;20045;-81
2022/06/25 01:31:01;;;;;;;16.65;14.88;;;;;;;;;;6323784;22;20018;-82
2022/06/25 01:33:27;;;;;;;19.75;15.88;;;;;;;;;;6300400;22;20015;-81
2022/06/25 01:35:53;;;;;;;18.20;16.58;;;;;;;;;;6297055;22;20033;-82
2022/06/25 01:38:19;;;;;;;19.95;16.20;;;;;;;;;;6328155;22;20526;-81
2022/06/25 01:40:45;;;;;;;16.83;15.07;;;;;;;;;;6328249;22;20800;-82
2022/06/25 01:43:11;;;;;;;18.08;15.85;;;;;;;;;;6326195;22;20030;-82
2022/06/25 01:45:38;;;;;;;18.42;16.45;;;;;;;;;;6326785;22;20043;-81
2022/06/25 01:48:06;;;;;;;18.52;16.63;;;;;;;;;;6329029;22;20395;-82
2022/06/25 01:50:34;;;;;;;18.35;16.45;;;;;;;;;;6328552;22;20014;-81
2022/06/25 01:53:00;;;;;;;20.58;17.50;;;;;;;;;;6328079;22;20359;-82
2022/06/25 01:55:26;;;;;;;19.25;17.35;;;;;;;;;;6300642;22;20021;-80
2022/06/25 01:57:52;;;;;;;22.70;17.63;;;;;;;;;;6327951;22;20396;-81
2022/06/25 02:00:26;;;;;;;21.58;17.75;;;;;;;;;;6299995;22;20050;-82
2022/06/25 02:02:54;;;;;;;21.23;17.48;;;;;;;;;;6326469;22;20026;-83
2022/06/25 02:05:56;;;;;;;19.67;17.45;;;;;;;;;;6327650;22;20011;-82
2022/06/25 02:08:08;;;;;;;20.73;16.75;;;;;;;;;;6299289;22;20378;-83
2022/06/25 02:10:37;;;;;;;21.48;17.83;;;;;;;;;;6326695;22;20021;-82
2022/06/25 02:13:04;;;;;;;20.98;18.90;;;;;;;;;;6301628;22;20010;-81
2022/06/25 02:15:30;;;;;;;22.85;19.17;;;;;;;;;;6327361;22;20377;-81
2022/06/25 02:17:56;;;;;;;20.05;18.25;;;;;;;;;;6330370;22;20015;-82
2022/06/25 02:20:22;;;;;;;21.80;19.75;;;;;;;;;;6330468;22;20102;-83
2022/06/25 02:22:50;;;;;;;22.77;20.10;;;;;;;;;;6328185;22;20015;-82
2022/06/25 02:25:16;;;;;;;22.05;19.75;;;;;;;;;;6327845;22;20022;-82
2022/06/25 02:27:42;;;;;;;24.60;20.52;;;;;;;;;;6297472;22;20022;-80
2022/06/25 02:30:08;;;;;;;23.00;20.60;;;;;;;;;;6327747;22;20486;-81
2022/06/25 02:32:34;;;;;;;23.17;20.85;;;;;;;;;;6298815;22;20022;-82
2022/06/25 02:35:01;;;;;;;22.10;19.92;;;;;;;;;;6329943;22;20043;-82
2022/06/25 02:37:33;;;;;;;23.17;20.13;;;;;;;;;;6325529;22;20019;-82
2022/06/25 02:39:59;;;;;;;23.75;19.90;;;;;;;;;;6325773;22;20019;-82
2022/06/25 02:42:25;;;;;;;24.15;21.67;;;;;;;;;;6326781;22;20022;-82
2022/06/25 02:44:51;;;;;;;22.65;20.38;;;;;;;;;;6299893;22;20030;-81
2022/06/25 02:47:17;;;;;;;22.20;20.05;;;;;;;;;;6327147;22;20094;-81
2022/06/25 02:49:44;;;;;;;23.17;20.67;;;;;;;;;;6326230;22;20019;-81
2022/06/25 02:52:10;;;;;;;22.48;20.38;;;;;;;;;;6299772;22;20023;-82
2022/06/25 02:54:36;;;;;;;28.45;21.27;;;;;;;;;;6299857;22;20032;-83
2022/06/25 02:59:53;;;;;;;23.50;20.85;;;;;;;;;;6278723;22;20027;-82
2022/06/25 03:02:19;;;;;;;25.52;22.55;;;;;;;;;;6327367;22;20125;-81
2022/06/25 03:04:45;;;;;;;24.90;22.40;;;;;;;;;;6299585;22;20019;-81
2022/06/25 03:07:11;;;;;;;23.25;20.95;;;;;;;;;;6301433;22;20026;-83
2022/06/25 03:09:38;;;;;;;24.80;22.15;;;;;;;;;;6327943;22;20018;-81
2022/06/25 03:12:04;;;;;;;24.88;22.10;;;;;;;;;;6300793;22;20556;-83
2022/06/25 03:14:30;;;;;;;24.77;22.17;;;;;;;;;;6302001;22;20022;-82
2022/06/25 03:16:56;;;;;;;24.95;22.33;;;;;;;;;;6310831;22;20015;-82
2022/06/25 03:19:22;;;;;;;25.98;23.27;;;;;;;;;;6341422;22;20014;-82
2022/06/25 03:21:48;;;;;;;23.77;21.38;;;;;;;;;;6318891;22;20026;-82
2022/06/25 03:24:14;;;;;;;23.73;21.35;;;;;;;;;;6340056;22;20014;-81
2022/06/25 03:26:40;;;;;;;23.85;21.45;;;;;;;;;;6331772;22;20011;-83
2022/06/25 03:29:12;;;;;;;25.17;22.35;;;;;;;;;;6330059;22;20033;-82
2022/06/25 03:31:39;;;;;;;24.20;21.17;;;;;;;;;;6326964;22;20339;-81
2022/06/25 03:34:06;;;;;;;26.27;21.10;;;;;;;;;;6325992;22;20072;-83
2022/06/25 03:36:32;;;;;;;24.20;21.85;;;;;;;;;;6274521;22;20474;-83
2022/06/25 03:38:58;;;;;;;27.75;23.27;;;;;;;;;;6326961;22;20011;-81
2022/06/25 03:41:44;;;;;;;25.45;22.95;;;;;;;;;;6328265;22;20025;-81
2022/06/25 03:44:10;;;;;;;25.67;23.00;;;;;;;;;;6272008;22;20027;-83
2022/06/25 03:46:39;;;;;;;25.67;22.95;;;;;;;;;;6299780;22;20023;-84
2022/06/25 03:49:06;;;;;;;28.23;22.52;;;;;;;;;;6325809;22;20015;-82
2022/06/25 03:51:36;;;;;;;25.67;22.20;;;;;;;;;;6300067;22;20439;-83
2022/06/25 03:54:03;;;;;;;27.27;22.63;;;;;;;;;;6325576;22;20022;-83
2022/06/25 03:56:29;;;;;;;24.80;22.15;;;;;;;;;;6298456;22;20498;-83
2022/06/25 03:59:07;;;;;;;26.92;22.88;;;;;;;;;;6326909;22;20451;-81
2022/06/25 04:01:33;;;;;;;26.23;23.58;;;;;;;;;;6272347;22;20015;-83
2022/06/25 04:03:59;;;;;;;28.90;24.10;;;;;;;;;;6297608;22;20038;-83
2022/06/25 04:06:26;;;;;;;26.25;23.60;;;;;;;;;;6326157;22;20489;-82
2022/06/25 04:08:52;;;;;;;26.65;23.85;;;;;;;;;;6326690;22;20019;-82
2022/06/25 04:11:18;;;;;;;27.15;24.35;;;;;;;;;;6297549;22;20018;-84
2022/06/25 04:13:44;;;;;;;27.60;24.70;;;;;;;;;;6327110;22;20081;-82
2022/06/25 04:16:10;;;;;;;26.92;24.15;;;;;;;;;;6324543;22;20022;-82
2022/06/25 04:18:36;;;;;;;26.52;23.83;;;;;;;;;;6326741;22;20025;-82
2022/06/25 04:21:02;;;;;;;26.23;23.52;;;;;;;;;;6325611;22;20380;-82
2022/06/25 04:23:29;;;;;;;26.33;23.45;;;;;;;;;;6298777;22;20026;-81
2022/06/25 04:25:55;;;;;;;26.05;23.27;;;;;;;;;;6299022;22;20023;-82
2022/06/25 04:31:12;;;;;;;25.63;22.55;;;;;;;;;;6299183;22;20027;-83
2022/06/25 04:33:38;;;;;;;27.35;23.75;;;;;;;;;;6297729;22;20041;-83
2022/06/25 04:36:04;;;;;;;25.73;22.67;;;;;;;;;;6324846;22;20030;-83
2022/06/25 04:38:30;;;;;;;26.40;23.67;;;;;;;;;;6325781;22;20060;-83
2022/06/25 04:40:56;;;;;;;25.80;23.05;;;;;;;;;;6298526;22;20117;-83
2022/06/25 04:43:23;;;;;;;26.20;23.27;;;;;;;;;;6324749;22;20019;-82
2022/06/25 04:45:56;;;;;;;25.58;22.75;;;;;;;;;;6298463;22;20022;-81
2022/06/25 04:48:37;;;;;;;26.50;22.63;;;;;;;;;;6324438;22;20288;-83
2022/06/25 04:51:05;;;;;;;24.30;21.77;;;;;;;;;;6299344;22;20022;-82
2022/06/25 04:53:31;;;;;;;24.20;21.65;;;;;;;;;;6272249;22;20344;-83
2022/06/25 04:55:57;;;;;;;23.70;21.52;;;;;;;;;;6326528;22;20030;-83
2022/06/25 04:58:23;;;;;;;22.48;20.20;;;;;;;;;;6325579;22;20026;-82
2022/06/25 05:00:50;;;;;;;21.75;19.52;;;;;;;;;;6298018;22;20451;-81
2022/06/25 05:03:17;;;;;;;23.25;18.65;;;;;;;;;;6326951;22;20339;-82
2022/06/25 05:05:49;;;;;;;19.95;17.83;;;;;;;;;;6324807;22;20014;-82
2022/06/25 05:08:15;;;;;;;20.67;18.45;;;;;;;;;;6324586;22;20019;-82
2022/06/25 05:10:44;;;;;;;21.20;17.63;;;;;;;;;;6323755;22;20224;-84
2022/06/25 05:13:13;;;;;;;19.30;17.48;;;;;;;;;;6325839;22;20019;-84
2022/06/25 05:15:40;;;;;;;19.55;17.63;;;;;;;;;;6297326;22;20022;-83
2022/06/25 05:18:09;;;;;;;20.05;18.10;;;;;;;;;;6299717;22;20084;-82
2022/06/25 05:20:39;;;;;;;28.60;19.40;;;;;;;;;;6298353;22;20027;-84
2022/06/25 05:23:06;;;;;;;21.10;17.15;;;;;;;;;;6276476;22;20022;-83
2022/06/25 05:25:39;;;;;;;23.38;17.80;;;;;;;;;;6329881;22;20022;-81
2022/06/25 05:28:06;;;;;;;18.83;17.02;;;;;;;;;;6327234;22;20050;-84
2022/06/25 05:30:32;;;;;;;22.95;17.20;;;;;;;;;;6300055;22;20414;-82
2022/06/25 05:32:59;;;;;;;20.15;17.67;;;;;;;;;;6326997;22;20023;-84
2022/06/25 05:35:25;;;;;;;19.63;17.55;;;;;;;;;;6298371;22;20019;-83
2022/06/25 05:37:51;;;;;;;19.58;17.52;;;;;;;;;;6299114;22;20359;-83
2022/06/25 05:40:20;;;;;;;18.42;16.55;;;;;;;;;;6274214;22;20015;-81
2022/06/25 05:42:47;;;;;;;22.75;16.55;;;;;;;;;;6249172;22;20062;-83
2022/06/25 05:45:13;;;;;;;18.10;15.52;;;;;;;;;;6325932;22;20061;-84
2022/06/25 05:47:40;;;;;;;17.55;15.77;;;;;;;;;;6297477;22;20022;-82
2022/06/25 05:50:06;;;;;;;20.17;14.63;;;;;;;;;;6326621;22;20310;-82
2022/06/25 05:52:32;;;;;;;15.38;13.65;;;;;;;;;;6269164;22;20023;-83
2022/06/25 05:54:58;;;;;;;15.80;14.20;;;;;;;;;;6272692;22;20130;-83
2022/06/25 05:57:42;;;;;;;16.48;13.82;;;;;;;;;;6299469;22;20022;-81
2022/06/25 06:00:08;;;;;;;14.00;12.52;;;;;;;;;;6325029;22;20602;-82
2022/06/25 06:02:35;;;;;;;18.65;13.48;;;;;;;;;;6323783;22;20018;-84
2022/06/25 06:05:01;;;;;;;19.00;13.70;;;;;;;;;;6324992;22;20451;-83
2022/06/25 06:07:33;;;;;;;18.73;13.95;;;;;;;;;;6323672;22;20015;-85
2022/06/25 06:09:59;;;;;;;14.68;12.80;;;;;;;;;;6325915;22;20105;-84
2022/06/25 06:12:25;;;;;;;13.30;12.00;;;;;;;;;;6327181;22;20014;-82
2022/06/25 06:14:57;;;;;;;15.57;12.73;;;;;;;;;;6297684;22;20096;-82
2022/06/25 06:17:23;;;;;;;12.80;11.50;;;;;;;;;;6324919;22;20026;-83
2022/06/25 06:19:50;;;;;;;14.85;12.45;;;;;;;;;;6325196;22;20018;-83
2022/06/25 06:22:16;;;;;;;13.23;11.98;;;;;;;;;;6298025;22;20052;-83
2022/06/25 06:24:42;;;;;;;13.88;12.30;;;;;;;;;;6325411;22;20458;-82
2022/06/25 06:27:11;;;;;;;13.60;12.18;;;;;;;;;;6327529;22;20353;-83
2022/06/25 06:29:37;;;;;;;12.15;10.85;;;;;;;;;;6274806;22;20018;-83
2022/06/25 06:32:04;;;;;;;13.23;11.18;;;;;;;;;;6300538;22;20026;-82
2022/06/25 06:34:30;;;;;;;13.32;11.25;;;;;;;;;;6307144;22;20412;-83
2022/06/25 06:36:56;;;;;;;13.55;11.35;;;;;;;;;;6296532;22;20347;-83
2022/06/25 06:39:22;;;;;;;12.43;11.18;;;;;;;;;;6297716;22;20017;-85
2022/06/25 06:41:48;;;;;;;12.43;11.13;;;;;;;;;;6303582;22;20445;-83
2022/06/25 06:44:14;;;;;;;13.02;11.15;;;;;;;;;;6306296;22;20019;-83
2022/06/25 06:46:51;;;;;;;12.00;10.73;;;;;;;;;;6312503;22;20016;-82
2022/06/25 06:49:17;;;;;;;13.95;10.60;;;;;;;;;;6304350;22;20073;-83
2022/06/25 06:51:43;;;;;;;11.63;10.38;;;;;;;;;;6298356;22;20047;-84
2022/06/25 06:54:12;;;;;;;13.45;10.35;;;;;;;;;;6269068;22;20030;-82
2022/06/25 06:56:38;;;;;;;13.48;10.88;;;;;;;;;;6271573;22;20015;-83
2022/06/25 06:59:04;;;;;;;10.93;9.77;;;;;;;;;;6270822;22;20079;-82
2022/06/25 07:01:30;;;;;;;11.43;9.50;;;;;;;;;;6299606;22;20022;-83
2022/06/25 07:03:57;;;;;;;12.20;9.82;;;;;;;;;;6285399;22;20023;-82
2022/06/25 07:06:23;;;;;;;11.32;10.13;;;;;;;;;;6298731;22;20098;-82
2022/06/25 07:08:49;;;;;;;12.63;10.20;;;;;;;;;;6268951;22;20771;-82
2022/06/25 07:14:06;;;;;;;12.63;9.38;;;;;;;;;;6296116;22;20023;-83
2022/06/25 07:17:04;;;;;;;12.55;9.75;;;;;;;;;;6243804;22;20088;-82
2022/06/25 07:19:32;;;;;;;14.52;8.93;;;;;;;;;;6142280;23;20022;-81
2022/06/25 07:21:58;;;;;;;11.27;9.52;;;;;;;;;;6228882;22;20019;-82
2022/06/25 07:24:31;;;;;;;12.38;9.73;;;;;;;;;;6250207;22;20026;-84
2022/06/25 07:27:20;;;;;;;9.93;8.18;;;;;;;;;;6301046;22;20073;-84
2022/06/25 07:29:46;;;;;;;9.52;8.63;;;;;;;;;;6280100;22;20098;-82
2022/06/25 07:35:28;;;;;;;11.70;7.97;;;;;;;;;;6270910;22;20570;-81
2022/06/25 07:38:09;;;;;;;8.52;7.50;;;;;;;;;;6149339;23;20044;-83
2022/06/25 07:40:35;;;;;;;10.35;8.23;;;;;;;;;;6197099;22;20020;-84
2022/06/25 07:43:02;;;;;;;13.57;8.05;;;;;;;;;;6243855;22;20043;-84
2022/06/25 07:45:52;;;;;;;13.40;7.70;;;;;;;;;;6275558;22;20027;-83
2022/06/25 07:48:31;;;;;;;9.07;6.63;;;;;;;;;;6219117;22;20023;-84
2022/06/25 07:54:10;;;;;;;9.80;5.75;;;;;;;;;;6274314;22;20022;-85
2022/06/25 07:56:38;;;;;;;7.55;5.28;;;;;;;;;;6273253;22;20340;-84
2022/06/25 07:59:28;;;;;;;7.75;6.80;;;;;;;;;;6227695;22;20085;-84
2022/06/25 08:05:25;;;;;;;6.25;5.53;;;;;;;;;;6328834;22;20052;-83
2022/06/25 08:07:51;;;;;;;8.98;6.40;;;;;;;;;;6301810;22;20106;-85
2022/06/25 08:10:17;;;;;;;8.57;5.55;;;;;;;;;;6307864;22;20019;-84
2022/06/25 08:19:38;;;;;;;8.93;5.80;;;;;;;;;;6335215;22;20013;-87
2022/06/25 08:25:23;;;;;;;5.05;3.88;;;;;;;;;;6275516;22;20347;-85
2022/06/25 08:28:15;;;;;;;8.18;4.15;;;;;;;;;;6275050;22;20016;-84
2022/06/25 08:30:42;;;;;;;5.30;3.90;;;;;;;;;;6246374;22;20034;-85
2022/06/25 08:33:15;;;;;;;4.72;4.13;;;;;;;;;;6226298;22;20348;-85
2022/06/25 08:35:41;;;;;;;4.78;3.55;;;;;;;;;;6276760;22;20095;-84
2022/06/25 08:38:26;;;;;;;6.65;2.75;;;;;;;;;;6250857;22;20023;-84
2022/06/25 08:40:59;;;;;;;6.13;3.20;;;;;;;;;;6220232;22;20043;-86
2022/06/25 08:43:26;;;;;;;4.85;3.70;;;;;;;;;;6276474;22;20165;-85
2022/06/25 08:45:55;;;;;;;5.15;3.60;;;;;;;;;;6275496;22;20035;-88
2022/06/25 08:48:25;;;;;;;5.13;2.95;;;;;;;;;;6281646;22;20139;-87
2022/06/25 08:50:55;;;;;;;6.05;3.08;;;;;;;;;;6253483;22;20089;-85
2022/06/25 08:53:21;;;;;;;5.82;2.70;;;;;;;;;;6226630;22;20523;-84
2022/06/25 08:55:47;;;;;;;3.97;2.80;;;;;;;;;;6273657;22;20067;-85
2022/06/25 09:05:32;;;;;;;8.32;3.28;;;;;;;;;;6249988;22;20062;-87
2022/06/25 09:07:59;;;;;;;7.22;3.00;;;;;;;;;;6224261;22;20024;-87
2022/06/25 09:10:29;;;;;;;4.55;2.78;;;;;;;;;;6278136;22;20026;-86
2022/06/25 09:12:56;;;;;;;4.22;2.70;;;;;;;;;;6250026;22;20023;-85
2022/06/25 09:15:39;;;;;;;10.18;2.83;;;;;;;;;;6252201;22;20012;-86
2022/06/25 09:18:06;;;;;;;8.93;2.70;;;;;;;;;;6249074;22;20016;-86
2022/06/25 09:20:33;;;;;;;6.60;2.85;;;;;;;;;;6251104;22;20023;-87
2022/06/25 09:23:01;;;;;;;3.90;2.35;;;;;;;;;;6275528;22;20118;-86
2022/06/25 09:25:31;;;;;;;5.60;2.20;;;;;;;;;;6248703;22;20098;-81
2022/06/25 09:28:01;;;;;;;5.45;2.50;;;;;;;;;;6251526;22;20515;-84
2022/06/25 09:31:02;;;;;;;4.53;2.50;;;;;;;;;;6227319;22;20026;-83
2022/06/25 09:33:29;;;;;;;3.22;2.13;;;;;;;;;;6256744;22;20077;-86
2022/06/25 09:35:55;;;;;;;7.43;2.70;;;;;;;;;;6252461;22;20022;-86
2022/06/25 09:38:23;;;;;;;5.45;2.78;;;;;;;;;;6257798;22;20026;-88
2022/06/25 09:40:50;;;;;;;4.45;2.72;;;;;;;;;;6225218;22;20541;-88
2022/06/25 09:43:18;;;;;;;9.15;2.65;;;;;;;;;;6252723;22;20029;-86
2022/06/25 09:46:05;;;;;;;6.10;2.22;;;;;;;;;;6280683;22;20491;-86
2022/06/25 09:52:04;;;;;;;7.10;1.90;;;;;;;;;;6283273;22;20051;-87
2022/06/25 09:54:33;;;;;;;5.85;2.22;;;;;;;;;;6253829;22;20351;-82
2022/06/25 09:57:03;;;;;;;4.43;2.03;;;;;;;;;;6224537;22;20054;-84
2022/06/25 09:59:55;;;;;;;5.07;1.65;;;;;;;;;;6252565;22;20054;-85
2022/06/25 10:02:21;;;;;;;3.97;2.15;;;;;;;;;;6253920;22;20020;-84
2022/06/25 10:04:48;;;;;;;5.88;2.10;;;;;;;;;;6282129;22;20051;-85
2022/06/25 10:07:15;;;;;;;6.10;2.53;;;;;;;;;;6234880;22;20444;-84
2022/06/25 10:09:42;;;;;;;4.32;1.90;;;;;;;;;;6280174;22;20015;-82
2022/06/25 10:12:18;;;;;;;4.45;2.30;;;;;;;;;;6226371;22;20098;-81
2022/06/25 10:14:48;;;;;;;7.25;2.28;;;;;;;;;;6228498;22;20454;-82
2022/06/25 10:17:24;;;;;;;3.40;1.90;;;;;;;;;;6160892;22;20083;-83
2022/06/25 10:20:03;;;;;;;3.08;1.83;;;;;;;;;;6252687;22;20027;-82
2022/06/25 10:22:30;;;;;;;4.75;2.28;;;;;;;;;;6230168;22;20024;-82
2022/06/25 10:25:00;;;;;;;4.55;2.03;;;;;;;;;;6229190;22;20023;-83
2022/06/25 10:27:28;;;;;;;3.20;2.40;;;;;;;;;;6281122;22;20516;-83
2022/06/25 10:29:57;;;;;;;4.20;1.98;;;;;;;;;;6229608;22;20015;-86
2022/06/25 10:35:46;;;;;;;6.55;1.75;;;;;;;;;;6284587;22;20414;-89
2022/06/25 10:38:13;;;;;;;5.88;1.80;;;;;;;;;;6255572;22;20027;-86
2022/06/25 10:40:57;;;;;;;4.45;1.73;;;;;;;;;;6228829;22;20022;-82
2022/06/25 10:43:39;;;;;;;6.47;2.25;;;;;;;;;;6253862;22;20445;-84
2022/06/25 10:49:37;;;;;;;3.58;1.55;;;;;;;;;;6281233;22;20024;-85
2022/06/25 10:52:05;;;;;;;1.45;1.20;;;;;;;;;;6283631;22;20644;-82
2022/06/25 10:54:33;;;;;;;3.22;1.70;;;;;;;;;;6288595;22;20069;-82
2022/06/25 10:57:00;;;;;;;3.40;1.50;;;;;;;;;;6261280;22;20027;-82
2022/06/25 10:59:41;;;;;;;8.05;1.70;;;;;;;;;;6197236;23;20547;-81
2022/06/25 11:02:15;;;;;;;3.08;2.13;;;;;;;;;;6198852;23;20079;-82
2022/06/25 11:04:48;;;;;;;7.90;1.40;;;;;;;;;;6167723;23;20025;-82
2022/06/25 11:07:19;;;;;;;3.10;1.20;;;;;;;;;;6216939;23;20185;-84
2022/06/25 11:09:53;;;;;;;1.80;1.05;;;;;;;;;;6188750;23;20922;-84
2022/06/25 11:29:47;;;;;;;2.88;1.20;;;;;;;;;;6254409;22;20098;-84
2022/06/25 11:32:28;;;;;;;2.22;1.27;;;;;;;;;;6256153;22;20825;-84
2022/06/25 11:34:56;;;;;;;3.78;1.30;;;;;;;;;;6250724;22;20028;-83
2022/06/25 11:37:22;;;;;;;4.45;1.20;;;;;;;;;;6252060;22;20020;-82
2022/06/25 11:39:50;;;;;;;2.33;1.35;;;;;;;;;;6252943;22;20016;-85
2022/06/25 11:42:16;;;;;;;5.22;1.35;;;;;;;;;;6199910;22;20016;-82
2022/06/25 11:45:06;;;;;;;3.17;1.30;;;;;;;;;;6250803;22;20054;-84
2022/06/25 11:47:50;;;;;;;2.20;1.20;;;;;;;;;;6277084;22;20090;-84
2022/06/25 11:50:19;;;;;;;2.85;1.40;;;;;;;;;;6200127;22;20023;-87
2022/06/25 11:56:27;;;;;;;3.35;1.40;;;;;;;;;;6259331;22;20030;-83
2022/06/25 11:58:53;;;;;;;6.35;2.13;;;;;;;;;;6278362;22;20019;-81
2022/06/25 12:01:27;;;;;;;6.30;1.60;;;;;;;;;;6250363;22;20019;-86
2022/06/25 12:03:53;;;;;;;;;;;;;;;;;;6228565;22;20487;-85
2022/06/25 12:06:19;;;;;;;2.78;1.35;;;;;;;;;;6228062;22;19926;-84
2022/06/25 12:08:45;;;;;;;2.90;1.45;;;;;;;;;;6277774;22;20055;-85
2022/06/25 12:11:12;;;;;;;5.22;1.20;;;;;;;;;;6279291;22;20069;-82
2022/06/25 12:13:38;;;;;;;6.45;1.30;;;;;;;;;;6278256;22;20045;-85
2022/06/25 12:16:05;;;;;;;4.57;1.30;;;;;;;;;;6278464;22;20023;-83
2022/06/25 12:18:41;;;;;;;5.18;1.00;;;;;;;;;;6276066;22;20097;-84
2022/06/25 12:21:21;;;;;;;4.38;1.40;;;;;;;;;;6248348;22;20054;-85
2022/06/25 12:24:01;;;;;;;1.35;1.00;;;;;;;;;;6245460;22;20020;-83
2022/06/25 12:26:44;;;;;;;3.50;1.52;;;;;;;;;;6275208;22;20086;-82
2022/06/25 12:29:10;;;;;;;2.37;1.00;;;;;;;;;;6223257;22;20031;-84
2022/06/25 12:31:36;;;;;;;2.25;1.00;;;;;;;;;;6275240;22;20032;-85
2022/06/25 12:34:04;;;;;;;4.68;1.40;;;;;;;;;;6277275;22;20038;-85
2022/06/25 12:36:57;;;;;;;5.70;2.05;;;;;;;;;;6248023;22;20357;-83
2022/06/25 12:39:33;;;;;;;5.72;0.95;;;;;;;;;;6249998;22;20096;-84
2022/06/25 12:42:08;;;;;;;3.40;1.00;;;;;;;;;;6251909;22;20028;-82
2022/06/25 12:44:35;;;;;;;3.50;1.10;;;;;;;;;;6220634;22;20016;-84
2022/06/25 12:47:09;;;;;;;3.28;1.05;;;;;;;;;;6274426;22;20016;-83
2022/06/25 12:49:43;;;;;;;2.22;1.27;;;;;;;;;;6273591;22;20023;-81
2022/06/25 12:52:09;;;;;;;;;;;;;;;;;;6271446;22;20023;-83
2022/06/25 12:54:49;;;;;;;3.00;1.02;;;;;;;;;;6220036;22;19919;-83
2022/06/25 12:57:55;;;;;;;2.85;1.23;;;;;;;;;;6271903;22;20436;-83
2022/06/25 13:00:25;;;;;;;9.48;1.83;;;;;;;;;;6240739;22;20103;-83
2022/06/25 13:02:51;;;;;;;2.72;1.48;;;;;;;;;;6244975;22;20519;-84
2022/06/25 13:05:18;;;;;;;3.50;1.25;;;;;;;;;;6270426;22;20026;-83
2022/06/25 13:07:45;;;;;;;3.85;1.17;;;;;;;;;;6268105;22;20015;-83
2022/06/25 13:10:12;;;;;;;2.88;1.10;;;;;;;;;;6215744;22;20016;-82
2022/06/25 13:12:38;;;;;;;2.80;1.20;;;;;;;;;;6265881;22;20100;-80
2022/06/25 13:15:25;;;;;;;11.68;1.52;;;;;;;;;;6240372;22;20085;-83
2022/06/25 13:17:52;;;;;;;5.32;1.38;;;;;;;;;;6266379;22;20028;-83
2022/06/25 13:20:18;;;;;;;12.50;4.20;;;;;;;;;;6270256;22;20035;-82
2022/06/25 13:22:45;;;;;;;11.57;4.10;;;;;;;;;;6219947;22;20026;-83
2022/06/25 13:25:12;;;;;;;14.88;4.55;;;;;;;;;;6268283;22;20468;-84
2022/06/25 13:27:59;;;;;;;18.73;3.90;;;;;;;;;;6241146;22;20019;-82
2022/06/25 13:30:25;;;;;;;11.13;3.97;;;;;;;;;;6271262;22;20840;-82
2022/06/25 13:32:51;;;;;;;14.23;3.35;;;;;;;;;;6243728;22;20072;-84
2022/06/25 13:35:17;;;;;;;14.57;3.70;;;;;;;;;;6243512;22;20019;-82
2022/06/25 13:37:44;;;;;;;11.23;3.50;;;;;;;;;;6195358;22;20067;-82
2022/06/25 13:40:12;;;;;;;11.35;3.60;;;;;;;;;;6270488;22;20094;-84
2022/06/25 13:42:55;;;;;;;9.93;3.50;;;;;;;;;;6273198;22;20031;-84
2022/06/25 13:45:22;;;;;;;18.05;4.55;;;;;;;;;;6274710;22;20015;-82
2022/06/25 13:47:48;;;;;;;8.40;3.88;;;;;;;;;;6220380;22;20019;-81
2022/06/25 13:50:14;;;;;;;13.98;4.70;;;;;;;;;;6269650;22;20065;-81
2022/06/25 13:52:40;;;;;;;9.70;3.47;;;;;;;;;;6269084;22;20019;-81
2022/06/25 13:55:06;;;;;;;9.80;4.38;;;;;;;;;;6271133;22;20022;-79
2022/06/25 13:57:33;;;;;;;14.07;4.40;;;;;;;;;;6269718;22;20050;-81
2022/06/25 13:59:59;;;;;;;10.93;4.25;;;;;;;;;;6266432;22;20015;-81
2022/06/25 14:02:25;;;;;;;12.25;3.88;;;;;;;;;;6240266;22;20099;-81
2022/06/25 14:04:51;;;;;;;8.50;3.55;;;;;;;;;;6215213;22;20082;-81
2022/06/25 14:07:17;;;;;;;9.70;3.92;;;;;;;;;;6240410;22;20102;-80
2022/06/25 14:09:43;;;;;;;11.13;3.63;;;;;;;;;;6266795;22;20019;-81
2022/06/25 14:12:13;;;;;;;11.32;3.92;;;;;;;;;;6239372;22;20047;-79
2022/06/25 14:14:39;;;;;;;9.75;3.92;;;;;;;;;;6240067;22;20594;-80
2022/06/25 14:17:05;;;;;;;14.02;4.07;;;;;;;;;;6267877;22;20448;-82
2022/06/25 14:20:10;;;;;;;10.65;4.05;;;;;;;;;;6238683;22;20027;-80
2022/06/25 14:22:36;;;;;;;12.30;4.15;;;;;;;;;;6221248;22;20019;-79
2022/06/25 14:25:20;;;;;;;10.27;4.35;;;;;;;;;;6239397;22;20023;-80
2022/06/25 14:27:50;;;;;;;14.55;3.72;;;;;;;;;;6213016;22;20113;-81
2022/06/25 14:30:16;;;;;;;11.13;3.80;;;;;;;;;;6267198;22;20024;-80
2022/06/25 14:32:42;;;;;;;14.70;5.18;;;;;;;;;;6240168;22;20016;-79
2022/06/25 14:35:08;;;;;;;7.40;3.75;;;;;;;;;;6212736;22;20360;-80
2022/06/25 14:43:06;;;;;;;9.77;3.83;;;;;;;;;;6265809;22;20074;-79
2022/06/25 14:45:33;;;;;;;14.15;3.75;;;;;;;;;;6266277;22;20427;-80
2022/06/25 14:47:59;;;;;;;10.88;3.50;;;;;;;;;;6266920;22;20012;-78
2022/06/25 14:50:25;;;;;;;14.73;4.20;;;;;;;;;;6266647;22;20636;-79
2022/06/25 14:52:51;;;;;;;10.10;3.75;;;;;;;;;;6265969;22;20026;-80
2022/06/25 14:55:17;;;;;;;8.02;3.97;;;;;;;;;;6266202;22;20104;-81
2022/06/25 14:57:43;;;;;;;9.52;3.33;;;;;;;;;;6237259;22;20030;-79
2022/06/25 15:00:10;;;;;;;8.77;3.85;;;;;;;;;;6265914;22;20352;-79
2022/06/25 15:02:37;;;;;;;9.63;4.25;;;;;;;;;;6264689;22;20098;-79
2022/06/25 15:05:03;;;;;;;12.38;3.47;;;;;;;;;;6238881;22;20041;-80
2022/06/25 15:07:29;;;;;;;12.63;3.95;;;;;;;;;;6240626;22;20297;-80
2022/06/25 15:10:03;;;;;;;14.00;3.40;;;;;;;;;;6267789;22;20751;-81
2022/06/25 15:12:29;;;;;;;14.07;3.88;;;;;;;;;;6267575;22;20015;-81
2022/06/25 15:14:55;;;;;;;9.40;3.20;;;;;;;;;;6265511;22;20033;-80
2022/06/25 15:17:21;;;;;;;14.88;3.20;;;;;;;;;;6239417;22;20024;-79
2022/06/25 15:19:48;;;;;;;12.95;3.72;;;;;;;;;;6244744;22;20031;-80
2022/06/25 15:22:14;;;;;;;11.85;3.22;;;;;;;;;;6241413;22;20019;-82
2022/06/25 15:24:40;;;;;;;10.98;3.28;;;;;;;;;;6267775;22;20076;-82
2022/06/25 15:27:07;;;;;;;14.95;3.42;;;;;;;;;;6216932;22;20362;-83
2022/06/25 15:29:35;;;;;;;9.23;2.85;;;;;;;;;;6268106;22;20015;-80
2022/06/25 15:32:04;;;;;;;9.85;2.95;;;;;;;;;;6267984;22;20348;-81
2022/06/25 15:34:31;;;;;;;8.60;3.25;;;;;;;;;;6266781;22;20023;-79
2022/06/25 15:36:57;;;;;;;13.15;3.42;;;;;;;;;;6189819;22;20020;-79
2022/06/25 15:39:23;;;;;;;9.73;3.40;;;;;;;;;;6267914;22;20020;-82
2022/06/25 15:41:50;;;;;;;9.55;3.30;;;;;;;;;;6239719;22;20069;-80
2022/06/25 15:44:16;;;;;;;9.40;3.15;;;;;;;;;;6267094;22;20062;-81
2022/06/25 15:46:42;;;;;;;12.10;3.60;;;;;;;;;;6266198;22;20517;-80
2022/06/25 15:49:09;;;;;;;14.38;4.07;;;;;;;;;;6239468;22;20073;-81
2022/06/25 15:51:36;;;;;;;8.23;3.00;;;;;;;;;;6239440;22;20297;-81
2022/06/25 15:54:03;;;;;;;8.77;3.15;;;;;;;;;;6238798;22;20011;-81
2022/06/25 15:56:29;;;;;;;12.05;3.50;;;;;;;;;;6246021;22;20051;-82